createdAt,value
2018-09-19T00:01:50.322Z,0.00
2018-09-19T00:02:50.265Z,0.00
2018-09-19T00:04:44.449Z,0.00
2018-09-19T00:05:44.426Z,0.00
2018-09-19T00:07:38.743Z,0.00
2018-09-19T00:08:38.703Z,0.00
2018-09-19T00:10:32.869Z,0.00
2018-09-19T00:11:32.900Z,0.00
2018-09-19T00:13:27.040Z,0.00
2018-09-19T00:14:26.970Z,0.00
2018-09-19T00:16:21.142Z,0.00
2018-09-19T00:17:21.167Z,0.00
2018-09-19T00:19:15.850Z,0.00
2018-09-19T00:20:15.891Z,0.00
2018-09-19T00:22:10.478Z,0.00
2018-09-19T00:23:14.216Z,0.00
2018-09-19T00:25:05.240Z,0.00
2018-09-19T00:26:05.146Z,0.00
2018-09-19T00:27:59.824Z,0.00
2018-09-19T00:28:59.821Z,0.00
2018-09-19T00:30:54.037Z,0.00
2018-09-19T00:31:54.002Z,0.00
2018-09-19T00:33:48.649Z,0.00
2018-09-19T00:34:48.667Z,0.00
2018-09-19T00:36:43.431Z,0.00
2018-09-19T00:37:43.342Z,0.00
2018-09-19T00:39:37.544Z,0.00
2018-09-19T00:40:38.217Z,0.00
2018-09-19T00:42:32.711Z,0.00
2018-09-19T00:43:32.703Z,0.00
2018-09-19T00:45:26.951Z,0.00
2018-09-19T00:46:26.952Z,0.00
2018-09-19T00:48:21.746Z,0.00
2018-09-19T00:49:21.589Z,0.00
2018-09-19T00:51:15.936Z,0.00
2018-09-19T00:52:16.241Z,0.00
2018-09-19T00:54:10.809Z,0.00
2018-09-19T00:55:11.012Z,0.00
2018-09-19T00:57:05.656Z,0.00
2018-09-19T00:58:06.051Z,0.00
2018-09-19T01:00:00.053Z,0.00
2018-09-19T01:01:00.168Z,0.00
2018-09-19T01:02:56.411Z,0.00
2018-09-19T01:03:54.880Z,0.00
2018-09-19T01:05:49.079Z,0.00
2018-09-19T01:06:49.157Z,0.00
2018-09-19T01:08:43.764Z,0.00
2018-09-19T01:09:44.249Z,0.00
2018-09-19T01:11:38.697Z,0.00
2018-09-19T01:12:38.872Z,0.00
2018-09-19T01:14:33.141Z,0.00
2018-09-19T01:15:33.508Z,0.00
2018-09-19T01:18:03.493Z,0.00
2018-09-19T01:19:03.635Z,0.00
2018-09-19T01:20:57.867Z,0.00
2018-09-19T01:21:58.126Z,0.00
2018-09-19T01:23:52.955Z,0.00
2018-09-19T01:24:52.906Z,0.00
2018-09-19T01:26:47.159Z,0.00
2018-09-19T01:27:47.493Z,0.00
2018-09-19T01:29:42.248Z,0.00
2018-09-19T01:30:42.181Z,0.00
2018-09-19T01:32:36.861Z,0.00
2018-09-19T01:33:39.522Z,0.00
2018-09-19T01:35:31.823Z,0.00
2018-09-19T01:36:31.971Z,0.00
2018-09-19T01:38:26.341Z,0.00
2018-09-19T01:39:26.622Z,0.00
2018-09-19T01:41:20.911Z,0.00
2018-09-19T01:42:20.936Z,0.00
2018-09-19T01:44:15.330Z,0.00
2018-09-19T01:45:15.617Z,0.00
2018-09-19T01:47:10.134Z,0.00
2018-09-19T01:48:10.205Z,0.00
2018-09-19T01:50:04.502Z,0.00
2018-09-19T01:51:05.372Z,0.00
2018-09-19T01:53:24.268Z,0.00
2018-09-19T01:54:24.210Z,0.00
2018-09-19T01:56:18.779Z,0.00
2018-09-19T01:57:18.349Z,0.00
2018-09-19T01:59:12.574Z,0.00
2018-09-19T02:00:12.896Z,0.00
2018-09-19T02:02:06.843Z,0.00
2018-09-19T02:03:07.099Z,0.00
2018-09-19T02:05:13.429Z,0.00
2018-09-19T02:06:13.693Z,0.00
2018-09-19T02:08:07.839Z,0.00
2018-09-19T02:09:08.250Z,0.00
2018-09-19T02:11:02.776Z,0.00
2018-09-19T02:12:02.892Z,0.00
2018-09-19T02:13:56.749Z,0.00
2018-09-19T02:14:57.544Z,0.00
2018-09-19T02:16:51.699Z,0.00
2018-09-19T02:17:51.829Z,0.00
2018-09-19T02:19:46.293Z,0.00
2018-09-19T02:20:46.869Z,0.00
2018-09-19T02:22:41.317Z,0.00
2018-09-19T02:23:41.566Z,0.00
2018-09-19T02:25:35.243Z,0.00
2018-09-19T02:26:35.719Z,0.00
2018-09-19T02:28:29.904Z,0.00
2018-09-19T02:29:30.001Z,0.00
2018-09-19T02:31:24.264Z,0.00
2018-09-19T02:33:58.431Z,0.00
2018-09-19T02:34:58.493Z,0.00
2018-09-19T02:37:22.028Z,0.00
2018-09-19T02:38:22.413Z,0.00
2018-09-19T02:39:22.403Z,0.00
2018-09-19T02:40:22.399Z,0.00
2018-09-19T02:41:22.385Z,0.00
2018-09-19T02:43:55.633Z,0.00
2018-09-19T02:44:55.807Z,0.00
2018-09-19T02:46:50.017Z,0.00
2018-09-19T02:47:50.495Z,0.00
2018-09-19T02:49:44.758Z,0.00
2018-09-19T02:50:44.860Z,0.00
2018-09-19T02:52:39.430Z,0.00
2018-09-19T02:53:39.835Z,0.00
2018-09-19T02:55:34.397Z,0.00
2018-09-19T02:56:34.762Z,0.00
2018-09-19T02:58:28.727Z,0.00
2018-09-19T02:59:29.173Z,0.00
2018-09-19T03:01:23.210Z,0.00
2018-09-19T03:02:23.310Z,0.00
2018-09-19T03:04:18.078Z,0.00
2018-09-19T03:05:17.637Z,0.00
2018-09-19T03:07:11.611Z,0.00
2018-09-19T03:08:11.800Z,0.00
2018-09-19T03:10:06.365Z,0.00
2018-09-19T03:11:06.815Z,0.00
2018-09-19T03:13:01.316Z,0.00
2018-09-19T03:14:01.501Z,0.00
2018-09-19T03:15:55.419Z,0.00
2018-09-19T03:16:55.717Z,0.00
2018-09-19T03:18:50.312Z,0.00
2018-09-19T03:19:50.474Z,0.00
2018-09-19T03:21:45.142Z,0.00
2018-09-19T03:22:45.550Z,0.00
2018-09-19T03:24:39.709Z,0.00
2018-09-19T03:25:39.768Z,0.00
2018-09-19T03:26:40.173Z,0.00
2018-09-19T03:27:39.782Z,0.00
2018-09-19T03:28:40.380Z,0.00
2018-09-19T03:29:39.937Z,0.00
2018-09-19T03:30:41.939Z,0.00
2018-09-19T03:31:40.260Z,0.00
2018-09-19T03:32:39.851Z,0.00
2018-09-19T03:33:40.255Z,0.00
2018-09-19T03:34:39.478Z,0.00
2018-09-19T03:35:40.232Z,0.00
2018-09-19T03:36:40.196Z,0.00
2018-09-19T03:37:39.691Z,0.00
2018-09-19T03:38:40.378Z,0.00
2018-09-19T03:39:40.174Z,0.00
2018-09-19T03:40:46.159Z,0.00
2018-09-19T03:41:40.183Z,0.00
2018-09-19T03:42:40.179Z,0.00
2018-09-19T03:43:40.176Z,0.00
2018-09-19T03:44:40.433Z,0.00
2018-09-19T03:45:40.243Z,0.00
2018-09-19T03:46:40.385Z,0.00
2018-09-19T03:47:40.192Z,0.00
2018-09-19T03:48:40.179Z,0.00
2018-09-19T03:49:40.253Z,0.00
2018-09-19T03:50:40.713Z,0.00
2018-09-19T03:51:40.213Z,0.00
2018-09-19T03:52:40.187Z,0.00
2018-09-19T03:53:40.225Z,0.00
2018-09-19T03:54:40.198Z,0.00
2018-09-19T03:55:40.201Z,0.00
2018-09-19T03:56:40.218Z,0.00
2018-09-19T03:57:40.190Z,0.00
2018-09-19T03:58:40.220Z,0.00
2018-09-19T03:59:40.248Z,0.00
2018-09-19T04:00:40.218Z,0.00
2018-09-19T04:01:40.238Z,0.00
2018-09-19T04:02:40.240Z,0.00
2018-09-19T04:03:40.227Z,0.00
2018-09-19T04:04:40.173Z,0.00
2018-09-19T04:05:40.160Z,0.00
2018-09-19T04:06:40.191Z,0.00
2018-09-19T04:07:40.193Z,0.00
2018-09-19T04:08:40.183Z,0.00
2018-09-19T04:09:40.192Z,0.00
2018-09-19T04:10:40.188Z,0.00
2018-09-19T04:11:40.191Z,0.00
2018-09-19T04:12:40.210Z,0.00
2018-09-19T04:13:40.248Z,0.00
2018-09-19T04:14:40.192Z,0.00
2018-09-19T04:15:40.175Z,0.00
2018-09-19T04:16:40.186Z,0.00
2018-09-19T04:17:40.297Z,0.00
2018-09-19T04:18:40.208Z,0.00
2018-09-19T04:19:40.224Z,0.00
2018-09-19T04:20:40.178Z,0.00
2018-09-19T04:21:41.997Z,0.00
2018-09-19T04:22:40.206Z,0.00
2018-09-19T04:23:40.225Z,0.00
2018-09-19T04:24:40.392Z,0.00
2018-09-19T04:25:40.219Z,0.00
2018-09-19T04:26:40.208Z,0.00
2018-09-19T04:27:40.214Z,0.00
2018-09-19T04:28:40.183Z,0.00
2018-09-19T04:29:40.246Z,0.00
2018-09-19T04:30:40.227Z,0.00
2018-09-19T04:31:40.244Z,0.00
2018-09-19T04:32:40.203Z,0.00
2018-09-19T04:33:40.181Z,0.00
2018-09-19T04:34:40.227Z,0.00
2018-09-19T04:35:40.213Z,0.00
2018-09-19T04:36:40.182Z,0.00
2018-09-19T04:37:40.213Z,0.00
2018-09-19T04:38:40.204Z,0.00
2018-09-19T04:39:40.232Z,0.00
2018-09-19T04:40:40.214Z,0.00
2018-09-19T04:41:40.222Z,0.00
2018-09-19T04:42:40.223Z,0.00
2018-09-19T04:43:40.216Z,0.00
2018-09-19T04:44:39.697Z,0.00
2018-09-19T04:45:40.488Z,0.00
2018-09-19T04:46:40.217Z,4.00
2018-09-19T04:47:40.251Z,4.00
2018-09-19T04:48:40.219Z,0.00
2018-09-19T04:49:40.222Z,4.00
2018-09-19T04:50:40.236Z,4.00
2018-09-19T04:51:40.317Z,8.00
2018-09-19T04:52:40.235Z,4.00
2018-09-19T04:53:40.446Z,8.00
2018-09-19T04:54:40.223Z,8.00
2018-09-19T04:55:40.201Z,8.00
2018-09-19T04:56:40.165Z,12.00
2018-09-19T04:57:40.198Z,16.00
2018-09-19T04:58:40.227Z,20.00
2018-09-19T04:59:40.227Z,16.00
2018-09-19T05:00:40.179Z,24.00
2018-09-19T05:02:40.246Z,28.00
2018-09-19T05:03:40.220Z,32.00
2018-09-19T05:04:40.166Z,40.00
2018-09-19T05:05:40.263Z,40.00
2018-09-19T05:06:40.252Z,48.00
2018-09-19T05:07:40.758Z,52.00
2018-09-19T05:08:40.302Z,60.00
2018-09-19T05:09:40.258Z,64.00
2018-09-19T05:10:39.724Z,68.00
2018-09-19T05:11:40.250Z,76.00
2018-09-19T05:12:40.757Z,80.00
2018-09-19T05:13:40.498Z,88.00
2018-09-19T05:14:40.232Z,96.00
2018-09-19T05:15:40.749Z,96.00
2018-09-19T05:16:40.257Z,104.00
2018-09-19T05:17:40.275Z,112.00
2018-09-19T05:18:40.497Z,120.00
2018-09-19T05:19:40.323Z,128.00
2018-09-19T05:20:40.208Z,136.00
2018-09-19T05:21:41.246Z,148.00
2018-09-19T05:22:40.244Z,160.00
2018-09-19T05:23:40.183Z,168.00
2018-09-19T05:24:40.257Z,180.00
2018-09-19T05:25:40.243Z,188.00
2018-09-19T05:26:40.254Z,196.00
2018-09-19T05:27:40.273Z,208.00
2018-09-19T05:28:40.461Z,216.00
2018-09-19T05:29:40.231Z,228.00
2018-09-19T05:30:40.243Z,236.00
2018-09-19T05:31:40.362Z,248.00
2018-09-19T05:32:39.955Z,256.00
2018-09-19T05:33:41.772Z,268.00
2018-09-19T05:34:40.047Z,280.00
2018-09-19T05:35:40.063Z,288.00
2018-09-19T05:36:39.959Z,300.00
2018-09-19T05:37:41.767Z,308.00
2018-09-19T05:38:41.788Z,320.00
2018-09-19T05:39:39.883Z,332.00
2018-09-19T05:40:39.888Z,348.00
2018-09-19T05:41:40.537Z,360.00
2018-09-19T05:42:40.466Z,376.00
2018-09-19T05:43:39.901Z,388.00
2018-09-19T05:44:39.860Z,400.00
2018-09-19T05:45:39.825Z,412.00
2018-09-19T05:46:39.934Z,424.00
2018-09-19T05:47:39.952Z,440.00
2018-09-19T05:48:40.425Z,456.00
2018-09-19T05:49:40.229Z,468.00
2018-09-19T05:50:40.465Z,484.00
2018-09-19T05:51:40.002Z,504.00
2018-09-19T05:52:39.919Z,520.00
2018-09-19T05:53:40.209Z,540.00
2018-09-19T05:54:40.630Z,556.00
2018-09-19T05:55:40.268Z,568.00
2018-09-19T05:56:40.179Z,584.00
2018-09-19T05:57:40.037Z,600.00
2018-09-19T05:58:40.474Z,612.00
2018-09-19T05:59:40.467Z,628.00
2018-09-19T06:00:40.277Z,640.00
2018-09-19T06:01:40.130Z,656.00
2018-09-19T06:02:40.062Z,668.00
2018-09-19T06:03:40.106Z,684.00
2018-09-19T06:04:40.470Z,692.00
2018-09-19T06:05:47.412Z,712.00
2018-09-19T06:06:39.831Z,724.00
2018-09-19T06:08:34.391Z,760.00
2018-09-19T06:09:34.662Z,772.00
2018-09-19T06:10:36.385Z,788.00
2018-09-19T06:11:34.152Z,796.00
2018-09-19T06:12:34.880Z,812.00
2018-09-19T06:13:34.344Z,824.00
2018-09-19T06:14:34.153Z,836.00
2018-09-19T06:15:34.535Z,844.00
2018-09-19T06:16:34.400Z,856.00
2018-09-19T06:18:59.947Z,880.00
2018-09-19T06:19:59.965Z,892.00
2018-09-19T06:20:59.981Z,904.00
2018-09-19T06:22:00.243Z,916.00
2018-09-19T06:23:00.010Z,924.00
2018-09-19T06:23:59.319Z,936.00
2018-09-19T06:24:59.946Z,948.00
2018-09-19T06:26:00.139Z,960.00
2018-09-19T06:26:59.979Z,968.00
2018-09-19T06:28:00.248Z,976.00
2018-09-19T06:28:59.736Z,988.00
2018-09-19T06:29:59.763Z,1000.00
2018-09-19T06:31:00.247Z,1012.00
2018-09-19T06:31:59.990Z,1028.00
2018-09-19T06:33:00.425Z,1036.00
2018-09-19T06:33:59.735Z,1052.00
2018-09-19T06:35:14.756Z,1064.00
2018-09-19T06:36:01.984Z,1080.00
2018-09-19T06:37:00.292Z,1092.00
2018-09-19T06:38:00.292Z,1108.00
2018-09-19T06:38:59.699Z,1124.00
2018-09-19T06:39:59.752Z,1136.00
2018-09-19T06:41:00.392Z,1152.00
2018-09-19T06:41:59.711Z,1172.00
2018-09-19T06:42:59.998Z,1188.00
2018-09-19T06:44:01.959Z,1200.00
2018-09-19T06:44:58.216Z,1220.00
2018-09-19T06:45:58.217Z,1240.00
2018-09-19T06:46:58.253Z,1252.00
2018-09-19T06:47:58.299Z,1272.00
2018-09-19T06:48:59.346Z,1288.00
2018-09-19T06:49:59.279Z,1304.00
2018-09-19T06:51:00.349Z,1320.00
2018-09-19T06:51:59.801Z,1332.00
2018-09-19T06:52:59.712Z,1340.00
2018-09-19T06:53:59.980Z,1348.00
2018-09-19T06:54:59.203Z,1356.00
2018-09-19T06:55:59.700Z,1360.00
2018-09-19T06:56:59.743Z,1368.00
2018-09-19T06:57:59.682Z,1384.00
2018-09-19T06:58:59.716Z,1396.00
2018-09-19T06:59:59.734Z,1408.00
2018-09-19T07:00:59.739Z,1424.00
2018-09-19T07:02:00.015Z,1448.00
2018-09-19T07:02:59.747Z,1476.00
2018-09-19T07:04:00.261Z,1508.00
2018-09-19T07:05:00.528Z,1544.00
2018-09-19T07:05:59.950Z,1576.00
2018-09-19T07:07:00.384Z,1592.00
2018-09-19T07:08:00.004Z,1596.00
2018-09-19T07:09:00.414Z,1588.00
2018-09-19T07:09:59.741Z,1560.00
2018-09-19T07:11:00.352Z,1544.00
2018-09-19T07:11:59.712Z,1540.00
2018-09-19T07:12:59.961Z,1532.00
2018-09-19T07:14:00.251Z,1532.00
2018-09-19T07:16:32.021Z,1524.00
2018-09-19T07:17:32.664Z,1528.00
2018-09-19T07:19:26.539Z,1512.00
2018-09-19T07:20:27.276Z,1512.00
2018-09-19T07:22:21.560Z,1508.00
2018-09-19T07:23:21.453Z,1512.00
2018-09-19T07:25:53.948Z,1524.00
2018-09-19T07:26:54.399Z,1536.00
2018-09-19T07:28:49.082Z,1548.00
2018-09-19T07:31:57.602Z,1568.00
2018-09-19T07:32:57.363Z,1584.00
2018-09-19T07:34:52.115Z,1600.00
2018-09-19T07:35:52.343Z,1608.00
2018-09-19T07:37:45.797Z,1616.00
2018-09-19T07:38:45.875Z,1628.00
2018-09-19T07:40:40.606Z,1660.00
2018-09-19T07:41:40.516Z,1660.00
2018-09-19T07:43:35.137Z,1668.00
2018-09-19T07:44:35.834Z,1676.00
2018-09-19T07:46:32.607Z,1692.00
2018-09-19T07:47:30.502Z,1692.00
2018-09-19T07:49:23.990Z,1708.00
2018-09-19T07:50:24.672Z,1720.00
2018-09-19T07:52:19.652Z,1748.00
2018-09-19T07:53:19.352Z,1760.00
2018-09-19T07:55:18.718Z,1796.00
2018-09-19T07:56:19.431Z,1816.00
2018-09-19T07:57:18.814Z,1824.00
2018-09-19T07:58:18.771Z,1840.00
2018-09-19T07:59:18.977Z,1856.00
2018-09-19T08:00:18.985Z,1876.00
2018-09-19T08:01:19.541Z,1896.00
2018-09-19T08:02:19.328Z,1912.00
2018-09-19T08:03:19.191Z,1932.00
2018-09-19T08:04:18.823Z,1956.00
2018-09-19T08:05:19.385Z,1984.00
2018-09-19T08:06:19.480Z,2012.00
2018-09-19T08:07:19.326Z,2044.00
2018-09-19T08:08:19.331Z,2072.00
2018-09-19T08:09:19.478Z,2096.00
2018-09-19T08:10:19.096Z,2120.00
2018-09-19T08:11:19.013Z,2144.00
2018-09-19T08:12:19.328Z,2152.00
2018-09-19T08:13:19.327Z,2156.00
2018-09-19T08:14:18.987Z,2164.00
2018-09-19T08:15:19.337Z,2172.00
2018-09-19T08:16:19.323Z,2188.00
2018-09-19T08:17:20.048Z,2204.00
2018-09-19T08:18:19.324Z,2216.00
2018-09-19T08:19:19.598Z,2224.00
2018-09-19T08:20:18.980Z,2232.00
2018-09-19T08:21:18.493Z,2244.00
2018-09-19T08:22:21.023Z,2248.00
2018-09-19T08:23:18.783Z,2248.00
2018-09-19T08:24:19.072Z,2252.00
2018-09-19T08:25:18.876Z,2292.00
2018-09-19T08:26:19.419Z,2308.00
2018-09-19T08:27:21.326Z,2332.00
2018-09-19T08:28:19.306Z,2360.00
2018-09-19T08:29:18.920Z,2356.00
2018-09-19T08:30:18.831Z,2344.00
2018-09-19T08:31:18.990Z,2344.00
2018-09-19T08:32:18.850Z,2352.00
2018-09-19T08:33:19.046Z,2352.00
2018-09-19T08:34:18.806Z,2352.00
2018-09-19T08:35:18.750Z,2364.00
2018-09-19T08:36:19.337Z,2384.00
2018-09-19T08:37:19.216Z,2400.00
2018-09-19T08:38:19.091Z,2412.00
2018-09-19T08:39:19.505Z,2412.00
2018-09-19T08:40:19.375Z,2404.00
2018-09-19T08:41:19.106Z,2396.00
2018-09-19T08:42:19.322Z,2388.00
2018-09-19T08:43:19.543Z,2380.00
2018-09-19T08:44:19.036Z,2388.00
2018-09-19T08:45:19.089Z,2404.00
2018-09-19T08:46:19.481Z,2436.00
2018-09-19T08:47:54.581Z,2444.00
2018-09-19T08:48:18.971Z,2464.00
2018-09-19T08:49:19.437Z,2484.00
2018-09-19T08:50:19.087Z,2496.00
2018-09-19T08:51:19.520Z,2516.00
2018-09-19T08:52:19.012Z,2536.00
2018-09-19T08:53:18.477Z,2544.00
2018-09-19T08:54:19.063Z,2548.00
2018-09-19T08:55:19.121Z,2556.00
2018-09-19T08:56:18.853Z,2564.00
2018-09-19T08:57:21.066Z,2568.00
2018-09-19T08:58:19.077Z,2576.00
2018-09-19T08:59:19.117Z,2592.00
2018-09-19T09:00:20.023Z,2620.00
2018-09-19T09:01:18.918Z,2652.00
2018-09-19T09:02:18.741Z,2696.00
2018-09-19T09:03:18.880Z,2732.00
2018-09-19T09:04:19.159Z,2760.00
2018-09-19T09:05:19.548Z,2784.00
2018-09-19T09:06:18.823Z,2804.00
2018-09-19T09:07:19.352Z,2816.00
2018-09-19T09:08:19.457Z,2800.00
2018-09-19T09:09:18.793Z,2788.00
2018-09-19T09:10:19.101Z,2804.00
2018-09-19T09:11:18.759Z,2836.00
2018-09-19T09:12:19.012Z,2872.00
2018-09-19T09:13:18.918Z,2896.00
2018-09-19T09:14:19.347Z,2916.00
2018-09-19T09:15:19.381Z,2956.00
2018-09-19T09:16:19.500Z,2968.00
2018-09-19T09:17:18.785Z,2972.00
2018-09-19T09:18:18.808Z,2984.00
2018-09-19T09:19:19.125Z,3008.00
2018-09-19T09:20:20.832Z,3036.00
2018-09-19T09:21:19.363Z,3080.00
2018-09-19T09:22:18.785Z,3156.00
2018-09-19T09:23:19.048Z,3228.00
2018-09-19T09:24:19.085Z,3304.00
2018-09-19T09:25:19.048Z,3348.00
2018-09-19T09:26:19.381Z,3344.00
2018-09-19T09:27:18.991Z,3332.00
2018-09-19T09:28:19.110Z,3356.00
2018-09-19T09:29:19.073Z,3388.00
2018-09-19T09:30:18.964Z,3404.00
2018-09-19T09:31:18.882Z,3432.00
2018-09-19T09:32:19.011Z,3516.00
2018-09-19T09:33:18.800Z,3632.00
2018-09-19T09:34:19.463Z,3648.00
2018-09-19T09:35:18.846Z,3776.00
2018-09-19T09:36:18.770Z,3892.00
2018-09-19T09:37:18.830Z,4068.00
2018-09-19T09:38:18.815Z,4444.00
2018-09-19T09:39:19.073Z,5036.00
2018-09-19T09:40:18.872Z,5180.00
2018-09-19T09:41:19.098Z,5424.00
2018-09-19T09:42:19.010Z,4716.00
2018-09-19T09:43:19.055Z,4640.00
2018-09-19T09:44:19.014Z,4460.00
2018-09-19T09:45:19.529Z,4148.00
2018-09-19T09:46:18.784Z,4316.00
2018-09-19T09:47:19.052Z,4220.00
2018-09-19T09:48:19.345Z,4384.00
2018-09-19T09:49:19.807Z,4616.00
2018-09-19T09:50:18.880Z,4764.00
2018-09-19T09:51:19.123Z,5148.00
2018-09-19T09:52:18.561Z,5592.00
2018-09-19T09:53:20.087Z,4956.00
2018-09-19T09:54:18.823Z,4496.00
2018-09-19T09:55:19.420Z,4408.00
2018-09-19T09:56:18.762Z,4344.00
2018-09-19T09:57:18.791Z,4320.00
2018-09-19T09:58:18.914Z,4296.00
2018-09-19T09:59:19.072Z,4364.00
2018-09-19T10:00:19.061Z,4348.00
2018-09-19T10:01:18.820Z,4376.00
2018-09-19T10:02:19.513Z,4628.00
2018-09-19T10:03:18.834Z,5372.00
2018-09-19T10:04:18.532Z,4996.00
2018-09-19T10:05:19.409Z,5236.00
2018-09-19T10:06:18.875Z,5512.00
2018-09-19T10:07:18.874Z,5580.00
2018-09-19T10:08:18.454Z,5600.00
2018-09-19T10:09:21.074Z,6024.00
2018-09-19T10:10:19.070Z,5996.00
2018-09-19T10:11:19.374Z,6600.00
2018-09-19T10:12:19.236Z,6984.00
2018-09-19T10:13:18.843Z,7852.00
2018-09-19T10:14:19.349Z,8364.00
2018-09-19T10:15:19.118Z,7628.00
2018-09-19T10:16:19.452Z,7264.00
2018-09-19T10:17:19.613Z,7552.00
2018-09-19T10:18:19.037Z,7812.00
2018-09-19T10:19:19.729Z,7548.00
2018-09-19T10:20:19.362Z,7404.00
2018-09-19T10:21:19.113Z,6568.00
2018-09-19T10:22:18.871Z,5952.00
2018-09-19T10:23:19.818Z,5680.00
2018-09-19T10:24:18.918Z,5752.00
2018-09-19T10:25:18.918Z,5860.00
2018-09-19T10:26:19.037Z,6128.00
2018-09-19T10:27:18.845Z,6528.00
2018-09-19T10:30:20.089Z,5304.00
2018-09-19T10:31:19.934Z,5608.00
2018-09-19T10:33:13.729Z,6628.00
2018-09-19T10:34:14.351Z,5408.00
2018-09-19T10:36:08.854Z,8272.00
2018-09-19T10:37:08.861Z,8608.00
2018-09-19T10:39:03.561Z,7964.00
2018-09-19T10:40:04.266Z,8436.00
2018-09-19T10:41:59.229Z,8804.00
2018-09-19T10:42:59.496Z,9168.00
2018-09-19T10:44:53.295Z,7748.00
2018-09-19T10:47:20.661Z,8872.00
2018-09-19T10:48:20.560Z,9684.00
2018-09-19T10:50:14.692Z,9464.00
2018-09-19T10:51:15.040Z,9856.00
2018-09-19T10:53:09.609Z,14208.00
2018-09-19T10:54:10.106Z,23328.00
2018-09-19T10:55:10.166Z,12280.00
2018-09-19T10:56:10.147Z,23712.00
2018-09-19T10:57:09.860Z,10000.00
2018-09-19T10:58:10.139Z,59968.00
2018-09-19T10:59:09.791Z,47520.00
2018-09-19T11:00:12.143Z,25792.00
2018-09-19T11:01:10.018Z,59456.00
2018-09-19T11:02:10.148Z,6384.00
2018-09-19T11:03:09.981Z,6408.00
2018-09-19T11:04:11.747Z,6084.00
2018-09-19T11:05:09.711Z,5660.00
2018-09-19T11:06:10.172Z,4408.00
2018-09-19T11:07:09.911Z,5360.00
2018-09-19T11:08:09.718Z,7376.00
2018-09-19T11:09:09.878Z,56512.00
2018-09-19T11:10:10.135Z,61056.00
2018-09-19T11:11:11.743Z,11252.00
2018-09-19T11:12:11.689Z,47328.00
2018-09-19T11:13:10.639Z,48992.00
2018-09-19T11:14:09.691Z,45792.00
2018-09-19T11:15:09.690Z,8716.00
2018-09-19T11:16:09.629Z,60640.00
2018-09-19T11:17:09.959Z,58336.00
2018-09-19T11:18:09.734Z,17408.00
2018-09-19T11:19:09.692Z,27744.00
2018-09-19T11:20:10.236Z,60480.00
2018-09-19T11:21:10.494Z,66336.00
2018-09-19T11:22:10.491Z,60256.00
2018-09-19T11:23:09.935Z,47392.00
2018-09-19T11:24:10.510Z,7508.00
2018-09-19T11:25:10.155Z,4084.00
2018-09-19T11:26:09.926Z,4376.00
2018-09-19T11:27:10.004Z,5460.00
2018-09-19T11:28:10.162Z,6968.00
2018-09-19T11:29:09.897Z,5596.00
2018-09-19T11:30:11.940Z,6384.00
2018-09-19T11:31:10.199Z,7076.00
2018-09-19T11:32:11.931Z,10124.00
2018-09-19T11:33:10.157Z,51616.00
2018-09-19T11:34:10.263Z,11136.00
2018-09-19T11:35:10.515Z,5156.00
2018-09-19T11:36:10.245Z,6496.00
2018-09-19T11:37:09.452Z,9980.00
2018-09-19T11:38:10.251Z,44000.00
2018-09-19T11:39:09.666Z,12816.00
2018-09-19T11:40:10.522Z,8768.00
2018-09-19T11:41:10.735Z,19968.00
2018-09-19T11:42:10.205Z,38336.00
2018-09-19T11:43:10.675Z,8728.00
2018-09-19T11:44:10.505Z,10020.00
2018-09-19T11:45:10.511Z,56320.00
2018-09-19T11:46:09.999Z,52896.00
2018-09-19T11:47:10.018Z,54912.00
2018-09-19T11:48:10.223Z,10664.00
2018-09-19T11:49:10.090Z,47776.00
2018-09-19T11:50:10.870Z,63840.00
2018-09-19T11:51:10.051Z,12252.00
2018-09-19T11:52:10.214Z,10600.00
2018-09-19T11:53:10.174Z,54912.00
2018-09-19T11:54:10.273Z,68128.00
2018-09-19T11:55:09.993Z,8980.00
2018-09-19T11:56:10.254Z,11396.00
2018-09-19T11:57:10.171Z,81120.00
2018-09-19T11:58:10.268Z,7348.00
2018-09-19T11:59:10.002Z,9100.00
2018-09-19T12:00:10.299Z,96064.00
2018-09-19T12:01:10.178Z,17140.00
2018-09-19T12:02:10.537Z,91424.00
2018-09-19T12:03:10.006Z,9076.00
2018-09-19T12:04:30.282Z,15412.00
2018-09-19T12:05:10.220Z,45312.00
2018-09-19T12:06:09.941Z,6464.00
2018-09-19T12:07:12.281Z,5080.00
2018-09-19T12:08:10.219Z,5888.00
2018-09-19T12:09:10.545Z,10036.00
2018-09-19T12:10:09.995Z,80896.00
2018-09-19T12:11:09.742Z,74912.00
2018-09-19T12:12:12.747Z,6968.00
2018-09-19T12:13:09.725Z,5376.00
2018-09-19T12:14:10.263Z,9532.00
2018-09-19T12:15:12.230Z,14180.00
2018-09-19T12:16:10.285Z,84224.00
2018-09-19T12:17:10.208Z,68928.00
2018-09-19T12:18:12.626Z,68864.00
2018-09-19T12:19:12.223Z,75168.00
2018-09-19T12:20:09.694Z,76928.00
2018-09-19T12:21:10.550Z,76192.00
2018-09-19T12:22:10.016Z,78752.00
2018-09-19T12:23:11.731Z,72352.00
2018-09-19T12:24:10.030Z,78048.00
2018-09-19T12:25:12.090Z,78240.00
2018-09-19T12:26:10.262Z,75488.00
2018-09-19T12:27:10.694Z,76544.00
2018-09-19T12:28:10.039Z,12516.00
2018-09-19T12:29:09.639Z,62592.00
2018-09-19T12:30:11.156Z,75488.00
2018-09-19T12:31:10.226Z,45248.00
2018-09-19T12:32:10.196Z,44544.00
2018-09-19T12:33:10.217Z,43168.00
2018-09-19T12:34:10.072Z,39264.00
2018-09-19T12:35:10.262Z,38528.00
2018-09-19T12:36:37.737Z,15892.00
2018-09-19T12:38:45.399Z,74400.00
2018-09-19T12:39:44.829Z,61344.00
2018-09-19T12:41:41.634Z,12284.00
2018-09-19T12:42:43.956Z,10624.00
2018-09-19T12:43:41.918Z,9508.00
2018-09-19T12:44:41.600Z,9812.00
2018-09-19T12:45:42.194Z,36032.00
2018-09-19T12:46:41.243Z,67648.00
2018-09-19T12:47:41.637Z,69376.00
2018-09-19T12:48:44.707Z,69888.00
2018-09-19T12:49:41.938Z,71872.00
2018-09-19T12:50:41.926Z,73184.00
2018-09-19T12:51:41.653Z,72704.00
2018-09-19T12:52:42.250Z,74336.00
2018-09-19T12:53:42.229Z,73664.00
2018-09-19T12:54:42.137Z,74784.00
2018-09-19T12:55:42.933Z,75328.00
2018-09-19T12:56:41.875Z,73472.00
2018-09-19T12:57:42.394Z,69248.00
2018-09-19T12:58:42.416Z,65312.00
2018-09-19T12:59:41.894Z,61216.00
2018-09-19T13:00:42.755Z,73760.00
2018-09-19T13:01:41.371Z,52352.00
2018-09-19T13:02:42.276Z,72864.00
2018-09-19T13:03:42.776Z,74496.00
2018-09-19T13:04:42.244Z,75840.00
2018-09-19T13:05:42.482Z,71616.00
2018-09-19T13:06:41.402Z,67936.00
2018-09-19T13:07:41.980Z,50176.00
2018-09-19T13:08:42.357Z,73440.00
2018-09-19T13:09:41.962Z,71008.00
2018-09-19T13:10:42.872Z,70656.00
2018-09-19T13:11:42.971Z,30528.00
2018-09-19T13:12:42.741Z,17280.00
2018-09-19T13:13:42.517Z,35904.00
2018-09-19T13:14:42.145Z,63456.00
2018-09-19T13:15:42.533Z,65952.00
2018-09-19T13:16:42.504Z,69504.00
2018-09-19T13:17:42.359Z,70464.00
2018-09-19T13:18:42.351Z,61120.00
2018-09-19T13:19:43.101Z,68896.00
2018-09-19T13:20:42.311Z,69504.00
2018-09-19T13:24:42.094Z,8684.00
2018-09-19T13:25:41.713Z,49152.00
2018-09-19T13:26:41.578Z,65856.00
2018-09-19T13:27:40.886Z,62880.00
2018-09-19T13:28:41.235Z,62240.00
2018-09-19T13:29:41.351Z,62528.00
2018-09-19T13:31:02.868Z,63136.00
2018-09-19T13:31:41.338Z,60704.00
2018-09-19T13:32:41.919Z,61632.00
2018-09-19T13:33:41.889Z,60736.00
2018-09-19T13:34:41.522Z,61344.00
2018-09-19T13:35:42.877Z,63904.00
2018-09-19T13:36:42.292Z,63584.00
2018-09-19T13:37:41.006Z,60256.00
2018-09-19T13:38:41.841Z,61056.00
2018-09-19T13:39:41.477Z,62880.00
2018-09-19T13:40:41.832Z,62496.00
2018-09-19T13:41:41.916Z,63904.00
2018-09-19T13:42:41.560Z,62848.00
2018-09-19T13:43:41.341Z,63872.00
2018-09-19T13:44:44.464Z,10996.00
2018-09-19T13:45:48.329Z,60288.00
2018-09-19T13:46:42.304Z,11760.00
2018-09-19T13:47:41.745Z,59072.00
2018-09-19T13:48:41.808Z,59776.00
2018-09-19T13:49:41.840Z,12568.00
2018-09-19T13:50:41.593Z,12384.00
2018-09-19T13:51:41.550Z,61888.00
2018-09-19T13:52:41.560Z,58816.00
2018-09-19T13:53:41.668Z,60128.00
2018-09-19T13:54:42.163Z,6792.00
2018-09-19T13:55:41.625Z,6996.00
2018-09-19T13:56:41.844Z,14936.00
2018-09-19T13:57:42.056Z,47168.00
2018-09-19T13:58:41.868Z,36320.00
2018-09-19T13:59:42.615Z,13940.00
2018-09-19T14:00:41.806Z,57824.00
2018-09-19T14:01:41.898Z,57152.00
2018-09-19T14:02:41.837Z,56512.00
2018-09-19T14:03:41.800Z,59968.00
2018-09-19T14:04:42.268Z,59808.00
2018-09-19T14:05:41.807Z,61248.00